sensor_id;sensor_type;location;lat;lon;timestamp;P1;durP1;ratioP1;P2;durP2;ratioP2
73437;SDS011;66471;56.532;21.020;2024-01-15T06:53:10;23.15;;;14.50;;
73437;SDS011;66471;56.532;21.020;2024-01-15T06:55:38;25.02;;;12.52;;
73437;SDS011;66471;56.532;21.020;2024-01-15T06:58:05;27.27;;;14.50;;
73437;SDS011;66471;56.532;21.020;2024-01-15T07:00:32;32.80;;;15.17;;
73437;SDS011;66471;56.532;21.020;2024-01-15T07:03:00;34.67;;;16.40;;
73437;SDS011;66471;56.532;21.020;2024-01-15T07:05:27;36.95;;;18.67;;
73437;SDS011;66471;56.532;21.020;2024-01-15T07:07:57;32.47;;;16.77;;
73437;SDS011;66471;56.532;21.020;2024-01-15T07:10:24;43.90;;;19.48;;
73437;SDS011;66471;56.532;21.020;2024-01-15T07:12:53;28.50;;;14.70;;
73437;SDS011;66471;56.532;21.020;2024-01-15T07:15:20;33.35;;;17.30;;
73437;SDS011;66471;56.532;21.020;2024-01-15T07:17:48;47.17;;;20.50;;
73437;SDS011;66471;56.532;21.020;2024-01-15T07:20:15;40.50;;;19.40;;
73437;SDS011;66471;56.532;21.020;2024-01-15T07:22:43;40.22;;;18.98;;
73437;SDS011;66471;56.532;21.020;2024-01-15T07:25:10;36.40;;;16.47;;
73437;SDS011;66471;56.532;21.020;2024-01-15T07:27:39;35.72;;;15.57;;
73437;SDS011;66471;56.532;21.020;2024-01-15T07:30:09;39.72;;;18.70;;
73437;SDS011;66471;56.532;21.020;2024-01-15T07:32:38;29.17;;;15.15;;
73437;SDS011;66471;56.532;21.020;2024-01-15T07:35:05;34.67;;;17.50;;
73437;SDS011;66471;56.532;21.020;2024-01-15T07:37:32;29.80;;;14.97;;
73437;SDS011;66471;56.532;21.020;2024-01-15T07:39:59;31.85;;;15.75;;
73437;SDS011;66471;56.532;21.020;2024-01-15T07:42:27;33.03;;;17.20;;
73437;SDS011;66471;56.532;21.020;2024-01-15T07:44:56;42.70;;;20.08;;
73437;SDS011;66471;56.532;21.020;2024-01-15T07:47:23;54.88;;;23.70;;
73437;SDS011;66471;56.532;21.020;2024-01-15T07:49:50;64.80;;;30.03;;
73437;SDS011;66471;56.532;21.020;2024-01-15T07:52:18;44.08;;;21.52;;
73437;SDS011;66471;56.532;21.020;2024-01-15T07:54:45;24.85;;;11.65;;
73437;SDS011;66471;56.532;21.020;2024-01-15T07:57:12;28.98;;;14.23;;
73437;SDS011;66471;56.532;21.020;2024-01-15T07:59:40;28.00;;;13.02;;
73437;SDS011;66471;56.532;21.020;2024-01-15T08:02:07;26.53;;;13.37;;
73437;SDS011;66471;56.532;21.020;2024-01-15T08:04:34;25.15;;;11.70;;
73437;SDS011;66471;56.532;21.020;2024-01-15T08:07:03;21.52;;;9.05;;
73437;SDS011;66471;56.532;21.020;2024-01-15T08:09:30;18.83;;;8.45;;
73437;SDS011;66471;56.532;21.020;2024-01-15T08:11:57;16.58;;;7.50;;
73437;SDS011;66471;56.532;21.020;2024-01-15T08:14:25;12.23;;;5.50;;
73437;SDS011;66471;56.532;21.020;2024-01-15T08:16:52;12.15;;;5.30;;
73437;SDS011;66471;56.532;21.020;2024-01-15T08:19:20;14.15;;;7.05;;
73437;SDS011;66471;56.532;21.020;2024-01-15T08:21:47;15.02;;;6.57;;
73437;SDS011;66471;56.532;21.020;2024-01-15T09:47:50;4.03;;;3.08;;
73437;SDS011;66471;56.532;21.020;2024-01-15T09:50:18;3.33;;;1.38;;
73437;SDS011;66471;56.532;21.020;2024-01-15T09:52:45;4.72;;;1.95;;
73437;SDS011;66471;56.532;21.020;2024-01-15T09:55:13;3.50;;;1.60;;
73437;SDS011;66471;56.532;21.020;2024-01-15T09:57:43;4.50;;;2.17;;
73437;SDS011;66471;56.532;21.020;2024-01-15T10:00:13;8.80;;;1.92;;
73437;SDS011;66471;56.532;21.020;2024-01-15T10:02:44;4.75;;;1.75;;
73437;SDS011;66471;56.532;21.020;2024-01-15T10:05:11;3.45;;;1.75;;
73437;SDS011;66471;56.532;21.020;2024-01-15T10:07:38;4.50;;;1.40;;
73437;SDS011;66471;56.532;21.020;2024-01-15T10:10:06;3.92;;;1.30;;
73437;SDS011;66471;56.532;21.020;2024-01-15T10:12:34;3.38;;;1.20;;
73437;SDS011;66471;56.532;21.020;2024-01-15T10:15:02;4.40;;;1.45;;
73437;SDS011;66471;56.532;21.020;2024-01-15T10:17:29;4.75;;;1.30;;
73437;SDS011;66471;56.532;21.020;2024-01-15T10:19:57;4.03;;;1.10;;
73437;SDS011;66471;56.532;21.020;2024-01-15T10:22:25;3.90;;;1.77;;
73437;SDS011;66471;56.532;21.020;2024-01-15T10:24:52;5.53;;;1.60;;
73437;SDS011;66471;56.532;21.020;2024-01-15T10:27:20;3.50;;;1.10;;
73437;SDS011;66471;56.532;21.020;2024-01-15T10:29:48;3.30;;;0.80;;
73437;SDS011;66471;56.532;21.020;2024-01-15T10:32:15;3.80;;;1.50;;
73437;SDS011;66471;56.532;21.020;2024-01-15T10:34:42;3.65;;;1.08;;
73437;SDS011;66471;56.532;21.020;2024-01-15T10:37:10;4.60;;;1.98;;
73437;SDS011;66471;56.532;21.020;2024-01-15T10:39:38;9.82;;;1.75;;
73437;SDS011;66471;56.532;21.020;2024-01-15T10:42:06;6.18;;;1.65;;
73437;SDS011;66471;56.532;21.020;2024-01-15T10:44:34;5.43;;;1.93;;
73437;SDS011;66471;56.532;21.020;2024-01-15T10:47:02;4.65;;;1.58;;
73437;SDS011;66471;56.532;21.020;2024-01-15T10:49:30;7.25;;;2.33;;
73437;SDS011;66471;56.532;21.020;2024-01-15T10:52:02;5.43;;;1.92;;
73437;SDS011;66471;56.532;21.020;2024-01-15T10:54:30;6.05;;;2.10;;
73437;SDS011;66471;56.532;21.020;2024-01-15T10:56:59;4.37;;;1.80;;
73437;SDS011;66471;56.532;21.020;2024-01-15T10:59:26;10.90;;;2.08;;
73437;SDS011;66471;56.532;21.020;2024-01-15T11:01:53;8.48;;;1.33;;
73437;SDS011;66471;56.532;21.020;2024-01-15T11:04:22;8.68;;;1.35;;
73437;SDS011;66471;56.532;21.020;2024-01-15T11:06:52;7.03;;;1.80;;
73437;SDS011;66471;56.532;21.020;2024-01-15T11:09:22;6.13;;;2.13;;
73437;SDS011;66471;56.532;21.020;2024-01-15T11:11:52;6.55;;;2.60;;
73437;SDS011;66471;56.532;21.020;2024-01-15T11:14:33;5.68;;;2.40;;
73437;SDS011;66471;56.532;21.020;2024-01-15T11:17:02;7.15;;;2.47;;
73437;SDS011;66471;56.532;21.020;2024-01-15T11:19:35;8.80;;;2.67;;
73437;SDS011;66471;56.532;21.020;2024-01-15T11:24:56;7.13;;;1.85;;
73437;SDS011;66471;56.532;21.020;2024-01-15T11:27:43;7.43;;;2.40;;
73437;SDS011;66471;56.532;21.020;2024-01-15T11:30:11;11.32;;;3.28;;
73437;SDS011;66471;56.532;21.020;2024-01-15T11:32:40;9.48;;;2.00;;
73437;SDS011;66471;56.532;21.020;2024-01-15T11:35:11;8.53;;;2.33;;
73437;SDS011;66471;56.532;21.020;2024-01-15T11:40:18;8.07;;;1.88;;
73437;SDS011;66471;56.532;21.020;2024-01-15T11:42:50;8.10;;;2.50;;
73437;SDS011;66471;56.532;21.020;2024-01-15T11:45:19;8.68;;;2.70;;
73437;SDS011;66471;56.532;21.020;2024-01-15T11:50:29;4.97;;;2.05;;
73437;SDS011;66471;56.532;21.020;2024-01-15T11:53:01;9.82;;;2.65;;
73437;SDS011;66471;56.532;21.020;2024-01-15T11:55:38;12.65;;;3.65;;
73437;SDS011;66471;56.532;21.020;2024-01-15T11:58:10;6.97;;;2.40;;
73437;SDS011;66471;56.532;21.020;2024-01-15T12:00:39;6.23;;;2.80;;
73437;SDS011;66471;56.532;21.020;2024-01-15T12:03:10;8.00;;;2.83;;
73437;SDS011;66471;56.532;21.020;2024-01-15T12:05:37;7.60;;;2.75;;
73437;SDS011;66471;56.532;21.020;2024-01-15T12:08:05;6.30;;;2.78;;
73437;SDS011;66471;56.532;21.020;2024-01-15T12:10:37;5.68;;;1.75;;
73437;SDS011;66471;56.532;21.020;2024-01-15T12:13:12;5.50;;;1.80;;
73437;SDS011;66471;56.532;21.020;2024-01-15T12:15:41;9.77;;;3.30;;
73437;SDS011;66471;56.532;21.020;2024-01-15T12:18:11;9.68;;;3.72;;
73437;SDS011;66471;56.532;21.020;2024-01-15T12:20:40;11.25;;;3.47;;
73437;SDS011;66471;56.532;21.020;2024-01-15T12:23:14;5.65;;;2.50;;
73437;SDS011;66471;56.532;21.020;2024-01-15T12:25:42;7.30;;;2.77;;
73437;SDS011;66471;56.532;21.020;2024-01-15T12:28:09;8.57;;;2.42;;
73437;SDS011;66471;56.532;21.020;2024-01-15T12:30:37;13.30;;;5.18;;
73437;SDS011;66471;56.532;21.020;2024-01-15T12:33:06;15.05;;;5.90;;
73437;SDS011;66471;56.532;21.020;2024-01-15T12:35:36;18.98;;;8.57;;
73437;SDS011;66471;56.532;21.020;2024-01-15T12:38:04;13.43;;;4.90;;
73437;SDS011;66471;56.532;21.020;2024-01-15T12:40:32;9.70;;;5.05;;
73437;SDS011;66471;56.532;21.020;2024-01-15T12:43:02;12.63;;;4.75;;
73437;SDS011;66471;56.532;21.020;2024-01-15T12:45:33;10.13;;;4.28;;
73437;SDS011;66471;56.532;21.020;2024-01-15T12:48:03;10.52;;;3.33;;
73437;SDS011;66471;56.532;21.020;2024-01-15T12:50:32;12.37;;;5.00;;
73437;SDS011;66471;56.532;21.020;2024-01-15T12:53:00;10.07;;;3.85;;
73437;SDS011;66471;56.532;21.020;2024-01-15T12:55:28;12.27;;;4.70;;
73437;SDS011;66471;56.532;21.020;2024-01-15T12:57:55;13.18;;;6.00;;
73437;SDS011;66471;56.532;21.020;2024-01-15T13:00:22;16.52;;;7.03;;
73437;SDS011;66471;56.532;21.020;2024-01-15T13:02:52;16.33;;;6.80;;
73437;SDS011;66471;56.532;21.020;2024-01-15T13:05:21;20.48;;;8.20;;
73437;SDS011;66471;56.532;21.020;2024-01-15T13:07:49;19.38;;;6.90;;
73437;SDS011;66471;56.532;21.020;2024-01-15T13:10:17;15.65;;;6.20;;
73437;SDS011;66471;56.532;21.020;2024-01-15T13:12:44;12.38;;;4.70;;
73437;SDS011;66471;56.532;21.020;2024-01-15T13:15:11;11.43;;;5.20;;
73437;SDS011;66471;56.532;21.020;2024-01-15T13:17:40;14.68;;;5.15;;
73437;SDS011;66471;56.532;21.020;2024-01-15T13:20:10;15.18;;;5.43;;
73437;SDS011;66471;56.532;21.020;2024-01-15T13:22:39;17.58;;;5.15;;
73437;SDS011;66471;56.532;21.020;2024-01-15T13:25:07;14.68;;;6.10;;
73437;SDS011;66471;56.532;21.020;2024-01-15T13:27:35;16.33;;;7.13;;
73437;SDS011;66471;56.532;21.020;2024-01-15T13:30:05;12.27;;;6.03;;
73437;SDS011;66471;56.532;21.020;2024-01-15T13:32:35;13.20;;;5.82;;
73437;SDS011;66471;56.532;21.020;2024-01-15T13:35:02;14.13;;;4.75;;
73437;SDS011;66471;56.532;21.020;2024-01-15T13:37:32;12.88;;;5.35;;
73437;SDS011;66471;56.532;21.020;2024-01-15T13:40:00;8.90;;;4.00;;
73437;SDS011;66471;56.532;21.020;2024-01-15T13:42:27;12.70;;;4.78;;
73437;SDS011;66471;56.532;21.020;2024-01-15T13:44:55;23.73;;;10.40;;
73437;SDS011;66471;56.532;21.020;2024-01-15T13:47:22;38.10;;;16.55;;
73437;SDS011;66471;56.532;21.020;2024-01-15T13:49:50;33.83;;;15.27;;
73437;SDS011;66471;56.532;21.020;2024-01-15T13:52:18;39.80;;;16.47;;
73437;SDS011;66471;56.532;21.020;2024-01-15T13:54:45;37.90;;;18.08;;
73437;SDS011;66471;56.532;21.020;2024-01-15T13:57:16;30.60;;;13.57;;
73437;SDS011;66471;56.532;21.020;2024-01-15T13:59:45;42.22;;;17.25;;
73437;SDS011;66471;56.532;21.020;2024-01-15T14:02:13;40.33;;;16.90;;
73437;SDS011;66471;56.532;21.020;2024-01-15T14:04:46;42.63;;;17.30;;
73437;SDS011;66471;56.532;21.020;2024-01-15T14:07:16;42.65;;;18.67;;
73437;SDS011;66471;56.532;21.020;2024-01-15T14:09:44;43.50;;;20.80;;
73437;SDS011;66471;56.532;21.020;2024-01-15T14:12:11;37.05;;;15.45;;
73437;SDS011;66471;56.532;21.020;2024-01-15T14:14:38;31.25;;;14.32;;
73437;SDS011;66471;56.532;21.020;2024-01-15T14:17:07;27.57;;;12.30;;
73437;SDS011;66471;56.532;21.020;2024-01-15T14:19:34;30.98;;;12.70;;
73437;SDS011;66471;56.532;21.020;2024-01-15T14:22:02;35.72;;;16.58;;
73437;SDS011;66471;56.532;21.020;2024-01-15T14:24:30;57.13;;;29.13;;
73437;SDS011;66471;56.532;21.020;2024-01-15T14:26:57;118.18;;;50.83;;
73437;SDS011;66471;56.532;21.020;2024-01-15T14:29:25;85.50;;;39.03;;
73437;SDS011;66471;56.532;21.020;2024-01-15T14:31:53;52.67;;;22.83;;
73437;SDS011;66471;56.532;21.020;2024-01-15T14:34:21;44.47;;;17.38;;
73437;SDS011;66471;56.532;21.020;2024-01-15T14:36:51;38.47;;;13.00;;
73437;SDS011;66471;56.532;21.020;2024-01-15T14:39:22;30.48;;;10.30;;
73437;SDS011;66471;56.532;21.020;2024-01-15T14:41:50;29.90;;;11.77;;
73437;SDS011;66471;56.532;21.020;2024-01-15T14:44:18;22.70;;;10.57;;
73437;SDS011;66471;56.532;21.020;2024-01-15T14:46:45;29.25;;;13.38;;
73437;SDS011;66471;56.532;21.020;2024-01-15T14:49:13;41.38;;;21.20;;
73437;SDS011;66471;56.532;21.020;2024-01-15T14:51:41;23.73;;;9.77;;
73437;SDS011;66471;56.532;21.020;2024-01-15T14:54:10;26.17;;;12.70;;
73437;SDS011;66471;56.532;21.020;2024-01-15T14:56:37;32.22;;;15.23;;
73437;SDS011;66471;56.532;21.020;2024-01-15T14:59:04;28.33;;;12.82;;
73437;SDS011;66471;56.532;21.020;2024-01-15T15:01:31;31.00;;;13.82;;
73437;SDS011;66471;56.532;21.020;2024-01-15T15:04:00;33.45;;;14.23;;
73437;SDS011;66471;56.532;21.020;2024-01-15T15:06:27;26.17;;;12.57;;
73437;SDS011;66471;56.532;21.020;2024-01-15T15:08:55;25.27;;;11.73;;
73437;SDS011;66471;56.532;21.020;2024-01-15T15:11:24;28.90;;;11.02;;
73437;SDS011;66471;56.532;21.020;2024-01-15T15:13:52;31.27;;;12.73;;
73437;SDS011;66471;56.532;21.020;2024-01-15T15:16:19;34.35;;;16.15;;
73437;SDS011;66471;56.532;21.020;2024-01-15T15:18:47;43.43;;;19.13;;
73437;SDS011;66471;56.532;21.020;2024-01-15T15:21:14;42.35;;;20.17;;
73437;SDS011;66471;56.532;21.020;2024-01-15T15:23:44;40.25;;;18.73;;
73437;SDS011;66471;56.532;21.020;2024-01-15T15:26:12;34.53;;;18.92;;
73437;SDS011;66471;56.532;21.020;2024-01-15T15:28:39;39.30;;;16.88;;
73437;SDS011;66471;56.532;21.020;2024-01-15T15:31:07;37.00;;;18.57;;
73437;SDS011;66471;56.532;21.020;2024-01-15T15:33:35;43.28;;;20.75;;
73437;SDS011;66471;56.532;21.020;2024-01-15T15:36:03;49.17;;;21.38;;
73437;SDS011;66471;56.532;21.020;2024-01-15T15:38:32;33.45;;;14.70;;
73437;SDS011;66471;56.532;21.020;2024-01-15T15:40:59;26.98;;;10.43;;
73437;SDS011;66471;56.532;21.020;2024-01-15T15:43:27;23.20;;;9.93;;
73437;SDS011;66471;56.532;21.020;2024-01-15T15:45:55;26.08;;;11.93;;
73437;SDS011;66471;56.532;21.020;2024-01-15T15:48:25;34.10;;;14.02;;
73437;SDS011;66471;56.532;21.020;2024-01-15T15:50:52;31.83;;;14.57;;
73437;SDS011;66471;56.532;21.020;2024-01-15T15:53:20;47.03;;;22.15;;
73437;SDS011;66471;56.532;21.020;2024-01-15T15:55:48;51.10;;;25.40;;
73437;SDS011;66471;56.532;21.020;2024-01-15T15:58:15;56.25;;;26.90;;
73437;SDS011;66471;56.532;21.020;2024-01-15T16:00:42;56.30;;;24.40;;
73437;SDS011;66471;56.532;21.020;2024-01-15T16:03:10;94.57;;;42.53;;
73437;SDS011;66471;56.532;21.020;2024-01-15T16:05:37;99.25;;;49.90;;
73437;SDS011;66471;56.532;21.020;2024-01-15T16:08:17;87.53;;;42.87;;
73437;SDS011;66471;56.532;21.020;2024-01-15T16:10:45;90.28;;;45.33;;
73437;SDS011;66471;56.532;21.020;2024-01-15T16:13:15;90.55;;;40.83;;
73437;SDS011;66471;56.532;21.020;2024-01-15T16:15:43;78.45;;;36.22;;
73437;SDS011;66471;56.532;21.020;2024-01-15T16:18:10;87.15;;;39.78;;
73437;SDS011;66471;56.532;21.020;2024-01-15T16:20:57;80.30;;;38.77;;
73437;SDS011;66471;56.532;21.020;2024-01-15T16:23:46;103.25;;;46.78;;
73437;SDS011;66471;56.532;21.020;2024-01-15T16:26:34;80.80;;;39.10;;
73437;SDS011;66471;56.532;21.020;2024-01-15T16:29:03;74.43;;;36.22;;
73437;SDS011;66471;56.532;21.020;2024-01-15T16:31:30;94.53;;;41.40;;
73437;SDS011;66471;56.532;21.020;2024-01-15T16:33:58;85.90;;;40.17;;
73437;SDS011;66471;56.532;21.020;2024-01-15T16:36:31;107.68;;;40.08;;
73437;SDS011;66471;56.532;21.020;2024-01-15T16:39:00;86.68;;;36.67;;
73437;SDS011;66471;56.532;21.020;2024-01-15T16:41:28;92.03;;;39.08;;
73437;SDS011;66471;56.532;21.020;2024-01-15T16:43:55;101.15;;;39.50;;
